Global Echo — 3FBK5 — position and weather

sailwx.info

Track history (hours):
 
Tides and Currents Weather Stations Pressure Air Temp Water Temp Dewpoint Dewpoint Depression Visibility Wind Speed Wind Dir Waves Ship Positions

Global Echo

Last reported at 2017-Oct-13 10:51 UTC. Time now 2017-Oct-20 14:33 UTC.
Position N 46°12' W 125°28'.

Length 169 m; draft 10.6 m.

Type: Cargo ship. MMSI: 373900000.

Date/timePositionNaut miles runAvg speedWind from/ knotsBaromVisibWave heightAir tempDewpointWater temp
2017-Oct-13 10:51N 46°12' W 125°28'4 9.0
2017-Oct-13 10:26N 46°12' W 125°22'4 9.0
2017-Oct-13 10:00N 46°12' W 125°17'7 8.7
2017-Oct-13 09:14N 46°12' W 125°07'2 8.9
2017-Oct-13 09:00N 46°12' W 125°04'713.6
2017-Oct-13 08:30N 46°12' W 124°54'3 5.1
2017-Oct-13 07:52N 46°12' W 124°50'3 8.8
2017-Oct-13 07:30N 46°12' W 124°45'5 8.8
2017-Oct-13 06:59N 46°12' W 124°38'4 8.3
2017-Oct-13 06:30N 46°12' W 124°33'5 8.4
2017-Oct-13 05:56N 46°12' W 124°25'4 9.3
2017-Oct-13 05:30N 46°12' W 124°20'5 9.2
2017-Oct-13 05:00N 46°13' W 124°13'510.2
2017-Oct-13 04:30N 46°14' W 124°06'611.7
2017-Oct-13 04:00N 46°13' W 123°58'510.0
2017-Oct-13 03:31N 46°12' W 123°51'5 9.1
2017-Oct-13 03:00N 46°13' W 123°45'711.3
2017-Oct-13 02:21N 46°15' W 123°35'411.4
2017-Oct-13 02:01N 46°16' W 123°29'510.1
2017-Oct-13 01:30N 46°12' W 123°26'5 9.5
2017-Oct-13 01:01N 46°09' W 123°21'611.8
2017-Oct-13 00:31N 46°10' W 123°13'510.8
2017-Oct-13 00:01N 46°10' W 123°05'612.6
2017-Oct-12 23:31N 46°06' W 122°58'611.0
2017-Oct-12 23:00N 46°02' W 122°53'611.8
2017-Oct-12 22:30N 45°57' W 122°48'612.6
2017-Oct-12 22:01N 45°51' W 122°47'612.6
2017-Oct-12 21:30N 45°44' W 122°46'611.5
2017-Oct-12 21:00N 45°39' W 122°45'2 3.3
2017-Oct-12 20:28N 45°38' W 122°42'0 0.0
2017-Oct-12 19:58N 45°38' W 122°42'0 0.0
2017-Oct-12 19:22N 45°38' W 122°42'0 0.0
2017-Oct-12 18:58N 45°38' W 122°42'0 0.0
2017-Oct-12 18:28N 45°38' W 122°42'0 0.0
2017-Oct-12 17:59N 45°38' W 122°42'0 0.0
2017-Oct-12 17:25N 45°38' W 122°42'0 0.0
2017-Oct-12 16:52N 45°38' W 122°42'0 0.0
2017-Oct-12 16:25N 45°38' W 122°42'0 0.0
2017-Oct-12 15:52N 45°38' W 122°42'0 0.0
2017-Oct-12 15:28N 45°38' W 122°42'0 0.0
2017-Oct-12 14:58N 45°38' W 122°42'0 0.0
2017-Oct-12 14:28N 45°38' W 122°42'0 0.0
2017-Oct-12 13:46N 45°38' W 122°42'0 0.0
2017-Oct-12 13:25N 45°38' W 122°42'0 0.0
2017-Oct-12 12:49N 45°38' W 122°42'0 0.0
2017-Oct-12 12:25N 45°38' W 122°42'0 0.0
2017-Oct-12 11:52N 45°38' W 122°42'0 0.0
2017-Oct-12 11:22N 45°38' W 122°42'0 0.0
2017-Oct-12 10:52N 45°38' W 122°42'0 0.0
2017-Oct-12 10:28N 45°38' W 122°42'0 0.0
2017-Oct-12 09:49N 45°38' W 122°42'0 0.0
2017-Oct-12 09:22N 45°38' W 122°42'0 0.0
2017-Oct-12 08:55N 45°38' W 122°42'0 0.0
2017-Oct-12 08:28N 45°38' W 122°42'0 0.0
2017-Oct-12 07:25N 45°38' W 122°42'0 0.0
2017-Oct-12 06:56N 45°38' W 122°42'0 0.0
2017-Oct-12 06:28N 45°38' W 122°42'0 0.0
2017-Oct-12 05:55N 45°38' W 122°42'0 0.0
2017-Oct-12 05:19N 45°38' W 122°42'0 0.0
2017-Oct-12 04:58N 45°38' W 122°42'0 0.0
2017-Oct-12 04:28N 45°38' W 122°42'0 0.0
2017-Oct-12 03:58N 45°38' W 122°42'0 0.0
2017-Oct-12 03:04N 45°38' W 122°42'0 0.0
2017-Oct-12 02:58N 45°38' W 122°42'0 0.0
2017-Oct-12 02:25N 45°38' W 122°42'0 0.0
2017-Oct-12 01:55N 45°38' W 122°42'0 0.0
2017-Oct-12 01:28N 45°38' W 122°42'0 0.0
2017-Oct-12 00:58N 45°38' W 122°42'0 0.0
2017-Oct-11 23:49N 45°38' W 122°42'0 0.0
2017-Oct-11 23:28N 45°38' W 122°42'0 0.1
2017-Oct-11 22:58N 45°38' W 122°42'0 0.0
2017-Oct-11 22:19N 45°38' W 122°42'0 0.0
2017-Oct-11 21:55N 45°38' W 122°42'0 0.0
2017-Oct-11 21:28N 45°38' W 122°42'0 0.0
2017-Oct-11 20:58N 45°38' W 122°42'0 0.0
2017-Oct-11 20:19N 45°38' W 122°42'0 0.0
2017-Oct-11 19:55N 45°38' W 122°42'0 0.0
2017-Oct-11 19:28N 45°38' W 122°42'0 0.0
2017-Oct-11 18:58N 45°38' W 122°42'0 0.0
2017-Oct-11 18:25N 45°38' W 122°42'0 0.0
2017-Oct-11 17:58N 45°38' W 122°42'0 0.0
2017-Oct-11 17:28N 45°38' W 122°42'0 0.0
2017-Oct-11 16:46N 45°38' W 122°42'0 0.0
2017-Oct-10 23:55N 45°38' W 122°42'0 0.0
2017-Oct-10 23:29N 45°38' W 122°42'0 0.0
2017-Oct-10 22:56N 45°38' W 122°42'0 0.0
2017-Oct-10 22:28N 45°38' W 122°42'0 0.1
2017-Oct-10 21:59N 45°38' W 122°42'0 0.0
2017-Oct-10 21:29N 45°38' W 122°42'0 0.0
2017-Oct-10 20:58N 45°38' W 122°42'0 0.0
2017-Oct-10 20:29N 45°38' W 122°42'0 0.0
2017-Oct-10 19:58N 45°38' W 122°42'0 0.0
2017-Oct-10 19:29N 45°38' W 122°42'0 0.0
2017-Oct-10 18:58N 45°38' W 122°42'0 0.0
2017-Oct-10 18:29N 45°38' W 122°42'0 0.0
2017-Oct-10 17:58N 45°38' W 122°42'0 0.0
2017-Oct-10 17:29N 45°38' W 122°42'0 0.0
2017-Oct-10 16:56N 45°38' W 122°42'0 0.0
2017-Oct-10 16:28N 45°38' W 122°42'0 0.0
2017-Oct-10 15:58N 45°38' W 122°42'0 0.0
2017-Oct-10 15:28N 45°38' W 122°42'0 0.0
2017-Oct-10 14:58N 45°38' W 122°42'0 0.0
2017-Oct-10 13:55N 45°38' W 122°42'0 0.0
2017-Oct-10 13:29N 45°38' W 122°42'0 0.0
2017-Oct-10 12:56N 45°38' W 122°42'0 0.0
2017-Oct-10 12:13N 45°38' W 122°42'0 0.0
2017-Oct-10 11:58N 45°38' W 122°42'0 0.0
2017-Oct-10 11:28N 45°38' W 122°42'0 0.0
2017-Oct-10 10:55N 45°38' W 122°42'0 0.0
2017-Oct-10 10:28N 45°38' W 122°42'0 0.0
2017-Oct-10 09:58N 45°38' W 122°42'0 0.0
2017-Oct-10 09:22N 45°38' W 122°42'0 0.0
2017-Oct-10 08:58N 45°38' W 122°42'0 0.0
2017-Oct-10 08:28N 45°38' W 122°42'0 0.0
2017-Oct-10 07:59N 45°38' W 122°42'0 0.0
2017-Oct-10 07:28N 45°38' W 122°42'0 0.0
2017-Oct-10 06:59N 45°38' W 122°42'0 0.0
2017-Oct-10 06:29N 45°38' W 122°42'0 0.0
2017-Oct-10 05:58N 45°38' W 122°42'0 0.0
2017-Oct-10 05:25N 45°38' W 122°42'0 0.0
2017-Oct-10 04:58N 45°38' W 122°42'0 0.0
2017-Oct-10 04:25N 45°38' W 122°42'0 0.0
2017-Oct-10 03:46N 45°38' W 122°42'0 0.0
2017-Oct-10 03:25N 45°38' W 122°42'0 0.0
2017-Oct-10 02:46N 45°38' W 122°42'0 0.0
2017-Oct-10 02:28N 45°38' W 122°42'0 0.0
2017-Oct-10 01:58N 45°38' W 122°42'0 0.0
2017-Oct-10 01:04N 45°38' W 122°42'0 0.0
2017-Oct-10 00:58N 45°38' W 122°42'0 0.0
2017-Oct-10 00:28N 45°38' W 122°42'0 0.0
2017-Oct-09 23:55N 45°38' W 122°42'0 0.0
2017-Oct-09 23:28N 45°38' W 122°42'0 0.0
2017-Oct-09 22:58N 45°38' W 122°42'0 0.0
2017-Oct-09 22:19N 45°38' W 122°42'0 0.0
2017-Oct-09 21:58N 45°38' W 122°42'0 0.0
2017-Oct-09 21:29N 45°38' W 122°42'0 0.0
2017-Oct-09 20:59N 45°38' W 122°42'0 0.0
2017-Oct-09 20:19N 45°38' W 122°42'0 0.0
2017-Oct-09 19:52N 45°38' W 122°42'0 0.0
2017-Oct-09 19:25N 45°38' W 122°42'0 0.0
2017-Oct-09 18:58N 45°38' W 122°42'0 0.0
2017-Oct-09 18:28N 45°38' W 122°42'0 0.0
2017-Oct-09 17:55N 45°38' W 122°42'0 0.0
2017-Oct-09 17:28N 45°38' W 122°42'0 0.0
2017-Oct-09 16:58N 45°38' W 122°42'0 0.0
2017-Oct-09 16:28N 45°38' W 122°42'0 0.0
2017-Oct-09 15:55N 45°38' W 122°42'0 0.0
2017-Oct-09 15:28N 45°38' W 122°42'0 0.0
2017-Oct-09 14:58N 45°38' W 122°42'0 0.0
2017-Oct-09 14:22N 45°38' W 122°42'0 0.0
2017-Oct-09 13:58N 45°38' W 122°42'0 0.0
2017-Oct-09 13:25N 45°38' W 122°42'0 0.0
2017-Oct-09 12:55N 45°38' W 122°42'0 0.0
2017-Oct-09 12:28N 45°38' W 122°42'0 0.0
2017-Oct-09 11:52N 45°38' W 122°42'0 0.0
2017-Oct-09 11:28N 45°38' W 122°42'0 0.0
2017-Oct-09 10:58N 45°38' W 122°42'0 0.0
2017-Oct-09 10:04N 45°38' W 122°42'0 0.1
2017-Oct-09 09:58N 45°38' W 122°42'0 0.0
2017-Oct-09 08:58N 45°38' W 122°42'0 0.0
2017-Oct-09 08:25N 45°38' W 122°42'0 0.0
2017-Oct-09 08:00N 45°38' W 122°42'0 0.4
2017-Oct-09 07:30N 45°38' W 122°43'3 5.2
2017-Oct-09 07:00N 45°39' W 122°46'0 0.6
2017-Oct-09 06:28N 45°38' W 122°47'0 0.0
2017-Oct-09 05:55N 45°38' W 122°47'0 0.0
2017-Oct-09 05:28N 45°38' W 122°47'0 0.0
2017-Oct-09 04:55N 45°38' W 122°47'0 0.0
2017-Oct-09 04:28N 45°38' W 122°47'0 0.0
2017-Oct-09 03:56N 45°38' W 122°47'0 0.0
2017-Oct-09 03:22N 45°38' W 122°47'0 0.0
2017-Oct-09 02:58N 45°38' W 122°47'0 0.0
2017-Oct-09 02:25N 45°38' W 122°47'0 0.0
2017-Oct-09 01:52N 45°38' W 122°47'0 0.0
2017-Oct-09 01:28N 45°38' W 122°47'0 0.0
2017-Oct-09 00:43N 45°38' W 122°47'0 0.0
2017-Oct-09 00:28N 45°38' W 122°47'0 0.0
2017-Oct-08 23:58N 45°38' W 122°47'0 0.0
2017-Oct-08 23:31N 45°38' W 122°47'2 3.1
2017-Oct-08 23:00N 45°40' W 122°46'1 1.9
2017-Oct-08 22:17N 45°41' W 122°46'0 0.0
2017-Oct-08 21:59N 45°41' W 122°46'0 0.0
2017-Oct-08 21:29N 45°41' W 122°46'0 0.0
2017-Oct-08 20:59N 45°41' W 122°46'0 0.0
2017-Oct-08 20:29N 45°41' W 122°46'0 0.0
2017-Oct-08 19:59N 45°41' W 122°46'0 0.0
2017-Oct-08 19:29N 45°41' W 122°46'0 0.0
2017-Oct-08 18:59N 45°41' W 122°46'0 0.0
2017-Oct-08 18:26N 45°41' W 122°46'0 0.0
2017-Oct-08 17:59N 45°41' W 122°46'0 0.0
2017-Oct-08 17:29N 45°41' W 122°46'0 0.1
2017-Oct-08 16:59N 45°41' W 122°46'0 0.0
2017-Oct-08 16:29N 45°41' W 122°46'0 0.1
2017-Oct-08 15:59N 45°41' W 122°46'0 0.2
2017-Oct-08 15:29N 45°41' W 122°46'0 0.2
2017-Oct-08 14:53N 45°41' W 122°46'0 0.1
2017-Oct-08 14:23N 45°41' W 122°46'0 0.0
2017-Oct-08 13:59N 45°41' W 122°46'0 0.0
2017-Oct-08 13:23N 45°41' W 122°46'0 0.1
2017-Oct-08 12:56N 45°41' W 122°46'0 0.3
2017-Oct-08 12:29N 45°41' W 122°46'0 0.0
2017-Oct-08 11:56N 45°41' W 122°46'0 0.0
2017-Oct-08 11:26N 45°41' W 122°46'0 0.0
2017-Oct-08 10:59N 45°41' W 122°46'0 0.0
2017-Oct-08 10:29N 45°41' W 122°46'0 0.0
2017-Oct-08 09:59N 45°41' W 122°46'0 0.0
2017-Oct-08 09:29N 45°41' W 122°46'0 0.0
2017-Oct-08 08:53N 45°41' W 122°46'0 0.0
2017-Oct-08 08:17N 45°41' W 122°46'0 0.0
2017-Oct-08 07:59N 45°41' W 122°46'0 0.0
2017-Oct-08 07:29N 45°41' W 122°46'0 0.0
2017-Oct-08 06:59N 45°41' W 122°46'0 0.0
2017-Oct-08 06:29N 45°41' W 122°46'0 0.0
2017-Oct-08 05:59N 45°41' W 122°46'0 0.0
2017-Oct-08 05:29N 45°41' W 122°46'0 0.0
2017-Oct-08 04:59N 45°41' W 122°46'0 0.0
2017-Oct-08 04:29N 45°41' W 122°46'0 0.0
2017-Oct-08 03:59N 45°41' W 122°46'0 0.1
2017-Oct-08 03:26N 45°41' W 122°46'0 0.2
2017-Oct-08 02:59N 45°41' W 122°46'0 0.1
2017-Oct-08 02:29N 45°41' W 122°46'0 0.1
2017-Oct-08 01:59N 45°41' W 122°46'0 0.0
2017-Oct-08 01:29N 45°41' W 122°46'0 0.0
2017-Oct-08 00:59N 45°41' W 122°46'0 0.0
2017-Oct-08 00:29N 45°41' W 122°46'0 0.0
2017-Oct-07 23:59N 45°41' W 122°46'0 0.0
2017-Oct-07 23:29N 45°41' W 122°46'0 0.5
2017-Oct-07 23:00N 45°41' W 122°46'4 7.1
2017-Oct-07 22:31N 45°45' W 122°46'611.8
2017-Oct-07 22:00N 45°50' W 122°47'611.8
2017-Oct-07 21:31N 45°56' W 122°48'611.7
2017-Oct-07 21:00N 46°02' W 122°52'510.8
2017-Oct-07 20:30N 46°06' W 122°57'611.8
2017-Oct-07 20:00N 46°09' W 123°04'611.4
2017-Oct-07 19:30N 46°11' W 123°12'611.8
2017-Oct-07 19:00N 46°09' W 123°20'510.5
2017-Oct-07 18:30N 46°12' W 123°26'510.5
2017-Oct-07 18:00N 46°16' W 123°29'611.3
2017-Oct-07 17:30N 46°15' W 123°37'8 6.6
2017-Oct-07 16:21N 46°12' W 123°47'0 0.0
2017-Oct-07 15:58N 46°12' W 123°47'1 2.4
2017-Oct-07 15:30N 46°12' W 123°49'4 8.4
2017-Oct-07 15:00N 46°12' W 123°55'5 9.3
2017-Oct-07 14:31N 46°15' W 123°60'4 7.8
2017-Oct-07 13:58N 46°15' W 124°06'511.5
2017-Oct-07 13:30N 46°12' W 124°13'2 3.1
2017-Oct-07 13:00N 46°11' W 124°13'4 8.4
2017-Oct-07 12:30N 46°07' W 124°17'2 4.6
2017-Oct-07 12:00N 46°09' W 124°15'3 5.1
2017-Oct-07 11:30N 46°07' W 124°17'5 9.6
2017-Oct-07 11:00N 46°02' W 124°18'510.6
2017-Oct-07 10:30N 45°57' W 124°19'510.1
2017-Oct-07 09:59N 45°52' W 124°20'510.7
2017-Oct-07 09:30N 45°47' W 124°21'611.0
2017-Oct-07 09:00N 45°41' W 124°22'910.8
2017-Oct-07 08:12N 45°32' W 124°23'210.4
2017-Oct-07 08:00N 45°30' W 124°24'510.8
2017-Oct-07 07:30N 45°25' W 124°25'811.4
2017-Oct-07 06:46N 45°17' W 124°27'311.5
2017-Oct-07 06:30N 45°14' W 124°28'611.4
2017-Oct-07 06:00N 45°08' W 124°28'611.8
2017-Oct-07 05:30N 45°02' W 124°29'612.1
2017-Oct-07 05:00N 44°56' W 124°29'811.8
2017-Oct-07 04:21N 44°49' W 124°32'411.6
2017-Oct-07 03:59N 44°45' W 124°33'611.9
2017-Oct-07 03:30N 44°39' W 124°34'612.5
2017-Oct-07 03:00N 44°33' W 124°35'612.1
2017-Oct-07 02:30N 44°27' W 124°36'612.3
2017-Oct-07 02:00N 44°21' W 124°37'612.1
2017-Oct-07 01:30N 44°15' W 124°38'5 9.9
2017-Oct-07 01:00N 44°10' W 124°39'611.8
2017-Oct-07 00:30N 44°04' W 124°40'611.4
2017-Oct-07 00:00N 43°58' W 124°41'611.6
2017-Oct-06 23:31N 43°53' W 124°43'611.4
2017-Oct-06 23:00N 43°47' W 124°44'611.4
2017-Oct-06 22:30N 43°41' W 124°45'611.6
2017-Oct-06 22:00N 43°36' W 124°45'1018.6
2017-Oct-06 21:28N 43°25' W 124°47'1 2.5
2017-Oct-06 21:00N 43°24' W 124°48'611.3
2017-Oct-06 20:30N 43°19' W 124°49'711.7
2017-Oct-06 19:54N 43°12' W 124°50'511.9
2017-Oct-06 19:30N 43°07' W 124°51'612.0
2017-Oct-06 18:57N 43°01' W 124°52'511.5
2017-Oct-06 18:30N 42°55' W 124°53'611.4
2017-Oct-06 18:00N 42°50' W 124°54'611.4
2017-Oct-06 17:29N 42°44' W 124°55'511.3
2017-Oct-06 17:01N 42°38' W 124°55'611.2
2017-Oct-06 16:30N 42°33' W 124°55'711.1
2017-Oct-06 15:52N 42°26' W 124°55'410.7
2017-Oct-06 15:30N 42°22' W 124°54'1010.6
2017-Oct-06 14:35N 42°12' W 124°54'110.6
2017-Oct-06 14:29N 42°11' W 124°54'1611.3
2017-Oct-06 13:06N 41°56' W 124°53'17211.2
2017-Oct-05 21:44N 39°07' W 124°09'311.8
2017-Oct-05 21:27N 39°03' W 124°07'512.2
2017-Oct-05 21:00N 38°58' W 124°05'712.3
2017-Oct-05 20:25N 38°52' W 124°01'512.2
2017-Oct-05 20:00N 38°48' W 123°57'611.6
2017-Oct-05 19:30N 38°43' W 123°53'812.1
2017-Oct-05 18:53N 38°37' W 123°47'512.2
2017-Oct-05 18:30N 38°33' W 123°43'612.0
2017-Oct-05 18:00N 38°29' W 123°39'611.5
2017-Oct-05 17:30N 38°24' W 123°34'612.2
2017-Oct-05 17:00N 38°19' W 123°29'1812.0
2017-Oct-05 15:30N 38°05' W 123°15'612.1
2017-Oct-05 15:00N 38°00' W 123°11'612.2
2017-Oct-05 14:30N 37°57' W 123°04'612.4
2017-Oct-05 14:00N 37°54' W 122°57'612.5
2017-Oct-05 13:30N 37°51' W 122°51'611.6
2017-Oct-05 13:00N 37°47' W 122°45'611.3
2017-Oct-05 12:30N 37°43' W 122°40'4 8.6
2017-Oct-05 12:00N 37°47' W 122°36'714.2
2017-Oct-05 11:30N 37°49' W 122°28'510.7
2017-Oct-05 11:00N 37°55' W 122°27'714.4
2017-Oct-05 10:30N 38°01' W 122°23'713.3
2017-Oct-05 10:00N 38°04' W 122°15'611.4
2017-Oct-05 09:30N 38°02' W 122°09'4 7.3
2017-Oct-05 09:00N 38°04' W 122°04'611.0
2017-Oct-05 08:27N 38°03' W 121°57'4 9.2
2017-Oct-05 08:00N 38°02' W 121°52'  
Track history (hours):
 
Tides and Currents Weather Stations Pressure Air Temp Water Temp Dewpoint Dewpoint Depression Visibility Wind Speed Wind Dir Waves Ship Positions

Global Echo

Last reported at 2017-Oct-13 10:51 UTC. Time now 2017-Oct-20 14:33 UTC.
Position N 46°12' W 125°28'.

Length 169 m; draft 10.6 m.

Type: Cargo ship. MMSI: 373900000.

Date/timePositionNaut miles runAvg speedWind from/ knotsBaromVisibWave heightAir tempDewpointWater temp
2017-Oct-13 10:51N 46°12' W 125°28'4 9.0
2017-Oct-13 10:26N 46°12' W 125°22'4 9.0
2017-Oct-13 10:00N 46°12' W 125°17'7 8.7
2017-Oct-13 09:14N 46°12' W 125°07'2 8.9
2017-Oct-13 09:00N 46°12' W 125°04'713.6
2017-Oct-13 08:30N 46°12' W 124°54'3 5.1
2017-Oct-13 07:52N 46°12' W 124°50'3 8.8
2017-Oct-13 07:30N 46°12' W 124°45'5 8.8
2017-Oct-13 06:59N 46°12' W 124°38'4 8.3
2017-Oct-13 06:30N 46°12' W 124°33'5 8.4
2017-Oct-13 05:56N 46°12' W 124°25'4 9.3
2017-Oct-13 05:30N 46°12' W 124°20'5 9.2
2017-Oct-13 05:00N 46°13' W 124°13'510.2
2017-Oct-13 04:30N 46°14' W 124°06'611.7
2017-Oct-13 04:00N 46°13' W 123°58'510.0
2017-Oct-13 03:31N 46°12' W 123°51'5 9.1
2017-Oct-13 03:00N 46°13' W 123°45'711.3
2017-Oct-13 02:21N 46°15' W 123°35'411.4
2017-Oct-13 02:01N 46°16' W 123°29'510.1
2017-Oct-13 01:30N 46°12' W 123°26'5 9.5
2017-Oct-13 01:01N 46°09' W 123°21'611.8
2017-Oct-13 00:31N 46°10' W 123°13'510.8
2017-Oct-13 00:01N 46°10' W 123°05'612.6
2017-Oct-12 23:31N 46°06' W 122°58'611.0
2017-Oct-12 23:00N 46°02' W 122°53'611.8
2017-Oct-12 22:30N 45°57' W 122°48'612.6
2017-Oct-12 22:01N 45°51' W 122°47'612.6
2017-Oct-12 21:30N 45°44' W 122°46'611.5
2017-Oct-12 21:00N 45°39' W 122°45'2 3.3
2017-Oct-12 20:28N 45°38' W 122°42'0 0.0
2017-Oct-12 19:58N 45°38' W 122°42'0 0.0
2017-Oct-12 19:22N 45°38' W 122°42'0 0.0
2017-Oct-12 18:58N 45°38' W 122°42'0 0.0
2017-Oct-12 18:28N 45°38' W 122°42'0 0.0
2017-Oct-12 17:59N 45°38' W 122°42'0 0.0
2017-Oct-12 17:25N 45°38' W 122°42'0 0.0
2017-Oct-12 16:52N 45°38' W 122°42'0 0.0
2017-Oct-12 16:25N 45°38' W 122°42'0 0.0
2017-Oct-12 15:52N 45°38' W 122°42'0 0.0
2017-Oct-12 15:28N 45°38' W 122°42'0 0.0
2017-Oct-12 14:58N 45°38' W 122°42'0 0.0
2017-Oct-12 14:28N 45°38' W 122°42'0 0.0
2017-Oct-12 13:46N 45°38' W 122°42'0 0.0
2017-Oct-12 13:25N 45°38' W 122°42'0 0.0
2017-Oct-12 12:49N 45°38' W 122°42'0 0.0
2017-Oct-12 12:25N 45°38' W 122°42'0 0.0
2017-Oct-12 11:52N 45°38' W 122°42'0 0.0
2017-Oct-12 11:22N 45°38' W 122°42'0 0.0
2017-Oct-12 10:52N 45°38' W 122°42'0 0.0
2017-Oct-12 10:28N 45°38' W 122°42'0 0.0
2017-Oct-12 09:49N 45°38' W 122°42'0 0.0
2017-Oct-12 09:22N 45°38' W 122°42'0 0.0
2017-Oct-12 08:55N 45°38' W 122°42'0 0.0
2017-Oct-12 08:28N 45°38' W 122°42'0 0.0
2017-Oct-12 07:25N 45°38' W 122°42'0 0.0
2017-Oct-12 06:56N 45°38' W 122°42'0 0.0
2017-Oct-12 06:28N 45°38' W 122°42'0 0.0
2017-Oct-12 05:55N 45°38' W 122°42'0 0.0
2017-Oct-12 05:19N 45°38' W 122°42'0 0.0
2017-Oct-12 04:58N 45°38' W 122°42'0 0.0
2017-Oct-12 04:28N 45°38' W 122°42'0 0.0
2017-Oct-12 03:58N 45°38' W 122°42'0 0.0
2017-Oct-12 03:04N 45°38' W 122°42'0 0.0
2017-Oct-12 02:58N 45°38' W 122°42'0 0.0
2017-Oct-12 02:25N 45°38' W 122°42'0 0.0
2017-Oct-12 01:55N 45°38' W 122°42'0 0.0
2017-Oct-12 01:28N 45°38' W 122°42'0 0.0
2017-Oct-12 00:58N 45°38' W 122°42'0 0.0
2017-Oct-11 23:49N 45°38' W 122°42'0 0.0
2017-Oct-11 23:28N 45°38' W 122°42'0 0.1
2017-Oct-11 22:58N 45°38' W 122°42'0 0.0
2017-Oct-11 22:19N 45°38' W 122°42'0 0.0
2017-Oct-11 21:55N 45°38' W 122°42'0 0.0
2017-Oct-11 21:28N 45°38' W 122°42'0 0.0
2017-Oct-11 20:58N 45°38' W 122°42'0 0.0
2017-Oct-11 20:19N 45°38' W 122°42'0 0.0
2017-Oct-11 19:55N 45°38' W 122°42'0 0.0
2017-Oct-11 19:28N 45°38' W 122°42'0 0.0
2017-Oct-11 18:58N 45°38' W 122°42'0 0.0
2017-Oct-11 18:25N 45°38' W 122°42'0 0.0
2017-Oct-11 17:58N 45°38' W 122°42'0 0.0
2017-Oct-11 17:28N 45°38' W 122°42'0 0.0
2017-Oct-11 16:46N 45°38' W 122°42'0 0.0
2017-Oct-10 23:55N 45°38' W 122°42'0 0.0
2017-Oct-10 23:29N 45°38' W 122°42'0 0.0
2017-Oct-10 22:56N 45°38' W 122°42'0 0.0
2017-Oct-10 22:28N 45°38' W 122°42'0 0.1
2017-Oct-10 21:59N 45°38' W 122°42'0 0.0
2017-Oct-10 21:29N 45°38' W 122°42'0 0.0
2017-Oct-10 20:58N 45°38' W 122°42'0 0.0
2017-Oct-10 20:29N 45°38' W 122°42'0 0.0
2017-Oct-10 19:58N 45°38' W 122°42'0 0.0
2017-Oct-10 19:29N 45°38' W 122°42'0 0.0
2017-Oct-10 18:58N 45°38' W 122°42'0 0.0
2017-Oct-10 18:29N 45°38' W 122°42'0 0.0
2017-Oct-10 17:58N 45°38' W 122°42'0 0.0
2017-Oct-10 17:29N 45°38' W 122°42'0 0.0
2017-Oct-10 16:56N 45°38' W 122°42'0 0.0
2017-Oct-10 16:28N 45°38' W 122°42'0 0.0
2017-Oct-10 15:58N 45°38' W 122°42'0 0.0
2017-Oct-10 15:28N 45°38' W 122°42'0 0.0
2017-Oct-10 14:58N 45°38' W 122°42'0 0.0
2017-Oct-10 13:55N 45°38' W 122°42'0 0.0
2017-Oct-10 13:29N 45°38' W 122°42'0 0.0
2017-Oct-10 12:56N 45°38' W 122°42'0 0.0
2017-Oct-10 12:13N 45°38' W 122°42'0 0.0
2017-Oct-10 11:58N 45°38' W 122°42'0 0.0
2017-Oct-10 11:28N 45°38' W 122°42'0 0.0
2017-Oct-10 10:55N 45°38' W 122°42'0 0.0
2017-Oct-10 10:28N 45°38' W 122°42'0 0.0
2017-Oct-10 09:58N 45°38' W 122°42'0 0.0
2017-Oct-10 09:22N 45°38' W 122°42'0 0.0
2017-Oct-10 08:58N 45°38' W 122°42'0 0.0
2017-Oct-10 08:28N 45°38' W 122°42'0 0.0
2017-Oct-10 07:59N 45°38' W 122°42'0 0.0
2017-Oct-10 07:28N 45°38' W 122°42'0 0.0
2017-Oct-10 06:59N 45°38' W 122°42'0 0.0
2017-Oct-10 06:29N 45°38' W 122°42'0 0.0
2017-Oct-10 05:58N 45°38' W 122°42'0 0.0
2017-Oct-10 05:25N 45°38' W 122°42'0 0.0
2017-Oct-10 04:58N 45°38' W 122°42'0 0.0
2017-Oct-10 04:25N 45°38' W 122°42'0 0.0
2017-Oct-10 03:46N 45°38' W 122°42'0 0.0
2017-Oct-10 03:25N 45°38' W 122°42'0 0.0
2017-Oct-10 02:46N 45°38' W 122°42'0 0.0
2017-Oct-10 02:28N 45°38' W 122°42'0 0.0
2017-Oct-10 01:58N 45°38' W 122°42'0 0.0
2017-Oct-10 01:04N 45°38' W 122°42'0 0.0
2017-Oct-10 00:58N 45°38' W 122°42'0 0.0
2017-Oct-10 00:28N 45°38' W 122°42'0 0.0
2017-Oct-09 23:55N 45°38' W 122°42'0 0.0
2017-Oct-09 23:28N 45°38' W 122°42'0 0.0
2017-Oct-09 22:58N 45°38' W 122°42'0 0.0
2017-Oct-09 22:19N 45°38' W 122°42'0 0.0
2017-Oct-09 21:58N 45°38' W 122°42'0 0.0
2017-Oct-09 21:29N 45°38' W 122°42'0 0.0
2017-Oct-09 20:59N 45°38' W 122°42'0 0.0
2017-Oct-09 20:19N 45°38' W 122°42'0 0.0
2017-Oct-09 19:52N 45°38' W 122°42'0 0.0
2017-Oct-09 19:25N 45°38' W 122°42'0 0.0
2017-Oct-09 18:58N 45°38' W 122°42'0 0.0
2017-Oct-09 18:28N 45°38' W 122°42'0 0.0
2017-Oct-09 17:55N 45°38' W 122°42'0 0.0
2017-Oct-09 17:28N 45°38' W 122°42'0 0.0
2017-Oct-09 16:58N 45°38' W 122°42'0 0.0
2017-Oct-09 16:28N 45°38' W 122°42'0 0.0
2017-Oct-09 15:55N 45°38' W 122°42'0 0.0
2017-Oct-09 15:28N 45°38' W 122°42'0 0.0
2017-Oct-09 14:58N 45°38' W 122°42'0 0.0
2017-Oct-09 14:22N 45°38' W 122°42'0 0.0
2017-Oct-09 13:58N 45°38' W 122°42'0 0.0
2017-Oct-09 13:25N 45°38' W 122°42'0 0.0
2017-Oct-09 12:55N 45°38' W 122°42'0 0.0
2017-Oct-09 12:28N 45°38' W 122°42'0 0.0
2017-Oct-09 11:52N 45°38' W 122°42'0 0.0
2017-Oct-09 11:28N 45°38' W 122°42'0 0.0
2017-Oct-09 10:58N 45°38' W 122°42'0 0.0
2017-Oct-09 10:04N 45°38' W 122°42'0 0.1
2017-Oct-09 09:58N 45°38' W 122°42'0 0.0
2017-Oct-09 08:58N 45°38' W 122°42'0 0.0
2017-Oct-09 08:25N 45°38' W 122°42'0 0.0
2017-Oct-09 08:00N 45°38' W 122°42'0 0.4
2017-Oct-09 07:30N 45°38' W 122°43'3 5.2
2017-Oct-09 07:00N 45°39' W 122°46'0 0.6
2017-Oct-09 06:28N 45°38' W 122°47'0 0.0
2017-Oct-09 05:55N 45°38' W 122°47'0 0.0
2017-Oct-09 05:28N 45°38' W 122°47'0 0.0
2017-Oct-09 04:55N 45°38' W 122°47'0 0.0
2017-Oct-09 04:28N 45°38' W 122°47'0 0.0
2017-Oct-09 03:56N 45°38' W 122°47'0 0.0
2017-Oct-09 03:22N 45°38' W 122°47'0 0.0
2017-Oct-09 02:58N 45°38' W 122°47'0 0.0
2017-Oct-09 02:25N 45°38' W 122°47'0 0.0
2017-Oct-09 01:52N 45°38' W 122°47'0 0.0
2017-Oct-09 01:28N 45°38' W 122°47'0 0.0
2017-Oct-09 00:43N 45°38' W 122°47'0 0.0
2017-Oct-09 00:28N 45°38' W 122°47'0 0.0
2017-Oct-08 23:58N 45°38' W 122°47'0 0.0
2017-Oct-08 23:31N 45°38' W 122°47'2 3.1
2017-Oct-08 23:00N 45°40' W 122°46'1 1.9
2017-Oct-08 22:17N 45°41' W 122°46'0 0.0
2017-Oct-08 21:59N 45°41' W 122°46'0 0.0
2017-Oct-08 21:29N 45°41' W 122°46'0 0.0
2017-Oct-08 20:59N 45°41' W 122°46'0 0.0
2017-Oct-08 20:29N 45°41' W 122°46'0 0.0
2017-Oct-08 19:59N 45°41' W 122°46'0 0.0
2017-Oct-08 19:29N 45°41' W 122°46'0 0.0
2017-Oct-08 18:59N 45°41' W 122°46'0 0.0
2017-Oct-08 18:26N 45°41' W 122°46'0 0.0
2017-Oct-08 17:59N 45°41' W 122°46'0 0.0
2017-Oct-08 17:29N 45°41' W 122°46'0 0.1
2017-Oct-08 16:59N 45°41' W 122°46'0 0.0
2017-Oct-08 16:29N 45°41' W 122°46'0 0.1
2017-Oct-08 15:59N 45°41' W 122°46'0 0.2
2017-Oct-08 15:29N 45°41' W 122°46'0 0.2
2017-Oct-08 14:53N 45°41' W 122°46'0 0.1
2017-Oct-08 14:23N 45°41' W 122°46'0 0.0
2017-Oct-08 13:59N 45°41' W 122°46'0 0.0
2017-Oct-08 13:23N 45°41' W 122°46'0 0.1
2017-Oct-08 12:56N 45°41' W 122°46'0 0.3
2017-Oct-08 12:29N 45°41' W 122°46'0 0.0
2017-Oct-08 11:56N 45°41' W 122°46'0 0.0
2017-Oct-08 11:26N 45°41' W 122°46'0 0.0
2017-Oct-08 10:59N 45°41' W 122°46'0 0.0
2017-Oct-08 10:29N 45°41' W 122°46'0 0.0
2017-Oct-08 09:59N 45°41' W 122°46'0 0.0
2017-Oct-08 09:29N 45°41' W 122°46'0 0.0
2017-Oct-08 08:53N 45°41' W 122°46'0 0.0
2017-Oct-08 08:17N 45°41' W 122°46'0 0.0
2017-Oct-08 07:59N 45°41' W 122°46'0 0.0
2017-Oct-08 07:29N 45°41' W 122°46'0 0.0
2017-Oct-08 06:59N 45°41' W 122°46'0 0.0
2017-Oct-08 06:29N 45°41' W 122°46'0 0.0
2017-Oct-08 05:59N 45°41' W 122°46'0 0.0
2017-Oct-08 05:29N 45°41' W 122°46'0 0.0
2017-Oct-08 04:59N 45°41' W 122°46'0 0.0
2017-Oct-08 04:29N 45°41' W 122°46'0 0.0
2017-Oct-08 03:59N 45°41' W 122°46'0 0.1
2017-Oct-08 03:26N 45°41' W 122°46'0 0.2
2017-Oct-08 02:59N 45°41' W 122°46'0 0.1
2017-Oct-08 02:29N 45°41' W 122°46'0 0.1
2017-Oct-08 01:59N 45°41' W 122°46'0 0.0
2017-Oct-08 01:29N 45°41' W 122°46'0 0.0
2017-Oct-08 00:59N 45°41' W 122°46'0 0.0
2017-Oct-08 00:29N 45°41' W 122°46'0 0.0
2017-Oct-07 23:59N 45°41' W 122°46'0 0.0
2017-Oct-07 23:29N 45°41' W 122°46'0 0.5
2017-Oct-07 23:00N 45°41' W 122°46'4 7.1
2017-Oct-07 22:31N 45°45' W 122°46'611.8
2017-Oct-07 22:00N 45°50' W 122°47'611.8
2017-Oct-07 21:31N 45°56' W 122°48'611.7
2017-Oct-07 21:00N 46°02' W 122°52'510.8
2017-Oct-07 20:30N 46°06' W 122°57'611.8
2017-Oct-07 20:00N 46°09' W 123°04'611.4
2017-Oct-07 19:30N 46°11' W 123°12'611.8
2017-Oct-07 19:00N 46°09' W 123°20'510.5
2017-Oct-07 18:30N 46°12' W 123°26'510.5
2017-Oct-07 18:00N 46°16' W 123°29'611.3
2017-Oct-07 17:30N 46°15' W 123°37'8 6.6
2017-Oct-07 16:21N 46°12' W 123°47'0 0.0
2017-Oct-07 15:58N 46°12' W 123°47'1 2.4
2017-Oct-07 15:30N 46°12' W 123°49'4 8.4
2017-Oct-07 15:00N 46°12' W 123°55'5 9.3
2017-Oct-07 14:31N 46°15' W 123°60'4 7.8
2017-Oct-07 13:58N 46°15' W 124°06'511.5
2017-Oct-07 13:30N 46°12' W 124°13'2 3.1
2017-Oct-07 13:00N 46°11' W 124°13'4 8.4
2017-Oct-07 12:30N 46°07' W 124°17'2 4.6
2017-Oct-07 12:00N 46°09' W 124°15'3 5.1
2017-Oct-07 11:30N 46°07' W 124°17'5 9.6
2017-Oct-07 11:00N 46°02' W 124°18'510.6
2017-Oct-07 10:30N 45°57' W 124°19'510.1
2017-Oct-07 09:59N 45°52' W 124°20'510.7
2017-Oct-07 09:30N 45°47' W 124°21'611.0
2017-Oct-07 09:00N 45°41' W 124°22'910.8
2017-Oct-07 08:12N 45°32' W 124°23'210.4
2017-Oct-07 08:00N 45°30' W 124°24'510.8
2017-Oct-07 07:30N 45°25' W 124°25'811.4
2017-Oct-07 06:46N 45°17' W 124°27'311.5
2017-Oct-07 06:30N 45°14' W 124°28'611.4
2017-Oct-07 06:00N 45°08' W 124°28'611.8
2017-Oct-07 05:30N 45°02' W 124°29'612.1
2017-Oct-07 05:00N 44°56' W 124°29'811.8
2017-Oct-07 04:21N 44°49' W 124°32'411.6
2017-Oct-07 03:59N 44°45' W 124°33'611.9
2017-Oct-07 03:30N 44°39' W 124°34'612.5
2017-Oct-07 03:00N 44°33' W 124°35'612.1
2017-Oct-07 02:30N 44°27' W 124°36'612.3
2017-Oct-07 02:00N 44°21' W 124°37'612.1
2017-Oct-07 01:30N 44°15' W 124°38'5 9.9
2017-Oct-07 01:00N 44°10' W 124°39'611.8
2017-Oct-07 00:30N 44°04' W 124°40'611.4
2017-Oct-07 00:00N 43°58' W 124°41'611.6
2017-Oct-06 23:31N 43°53' W 124°43'611.4
2017-Oct-06 23:00N 43°47' W 124°44'611.4
2017-Oct-06 22:30N 43°41' W 124°45'611.6
2017-Oct-06 22:00N 43°36' W 124°45'1018.6
2017-Oct-06 21:28N 43°25' W 124°47'1 2.5
2017-Oct-06 21:00N 43°24' W 124°48'611.3
2017-Oct-06 20:30N 43°19' W 124°49'711.7
2017-Oct-06 19:54N 43°12' W 124°50'511.9
2017-Oct-06 19:30N 43°07' W 124°51'612.0
2017-Oct-06 18:57N 43°01' W 124°52'511.5
2017-Oct-06 18:30N 42°55' W 124°53'611.4
2017-Oct-06 18:00N 42°50' W 124°54'611.4
2017-Oct-06 17:29N 42°44' W 124°55'511.3
2017-Oct-06 17:01N 42°38' W 124°55'611.2
2017-Oct-06 16:30N 42°33' W 124°55'711.1
2017-Oct-06 15:52N 42°26' W 124°55'410.7
2017-Oct-06 15:30N 42°22' W 124°54'1010.6
2017-Oct-06 14:35N 42°12' W 124°54'110.6
2017-Oct-06 14:29N 42°11' W 124°54'1611.3
2017-Oct-06 13:06N 41°56' W 124°53'17211.2
2017-Oct-05 21:44N 39°07' W 124°09'311.8
2017-Oct-05 21:27N 39°03' W 124°07'512.2
2017-Oct-05 21:00N 38°58' W 124°05'712.3
2017-Oct-05 20:25N 38°52' W 124°01'512.2
2017-Oct-05 20:00N 38°48' W 123°57'611.6
2017-Oct-05 19:30N 38°43' W 123°53'812.1
2017-Oct-05 18:53N 38°37' W 123°47'512.2
2017-Oct-05 18:30N 38°33' W 123°43'612.0
2017-Oct-05 18:00N 38°29' W 123°39'611.5
2017-Oct-05 17:30N 38°24' W 123°34'612.2
2017-Oct-05 17:00N 38°19' W 123°29'1812.0
2017-Oct-05 15:30N 38°05' W 123°15'612.1
2017-Oct-05 15:00N 38°00' W 123°11'612.2
2017-Oct-05 14:30N 37°57' W 123°04'612.4
2017-Oct-05 14:00N 37°54' W 122°57'612.5
2017-Oct-05 13:30N 37°51' W 122°51'611.6
2017-Oct-05 13:00N 37°47' W 122°45'611.3
2017-Oct-05 12:30N 37°43' W 122°40'4 8.6
2017-Oct-05 12:00N 37°47' W 122°36'714.2
2017-Oct-05 11:30N 37°49' W 122°28'510.7
2017-Oct-05 11:00N 37°55' W 122°27'714.4
2017-Oct-05 10:30N 38°01' W 122°23'713.3
2017-Oct-05 10:00N 38°04' W 122°15'611.4
2017-Oct-05 09:30N 38°02' W 122°09'4 7.3
2017-Oct-05 09:00N 38°04' W 122°04'611.0
2017-Oct-05 08:27N 38°03' W 121°57'4 9.2
2017-Oct-05 08:00N 38°02' W 121°52'  

Dump ship's entire track history